sensor_id;sensor_type;location;lat;lon;timestamp;P1;durP1;ratioP1;P2;durP2;ratioP2
44430;SDS011;30135;47.866;-4.222;2023-05-01T00:01:23;8.52;;;3.75;;
44430;SDS011;30135;47.866;-4.222;2023-05-01T00:03:49;11.60;;;3.65;;
44430;SDS011;30135;47.866;-4.222;2023-05-01T00:06:15;11.30;;;3.60;;
44430;SDS011;30135;47.866;-4.222;2023-05-01T00:08:41;8.02;;;4.53;;
44430;SDS011;30135;47.866;-4.222;2023-05-01T00:11:07;9.82;;;3.78;;
44430;SDS011;30135;47.866;-4.222;2023-05-01T00:13:36;7.67;;;2.77;;
44430;SDS011;30135;47.866;-4.222;2023-05-01T00:16:08;16.98;;;3.15;;
44430;SDS011;30135;47.866;-4.222;2023-05-01T00:18:36;10.32;;;3.83;;
44430;SDS011;30135;47.866;-4.222;2023-05-01T00:21:03;10.70;;;4.38;;
44430;SDS011;30135;47.866;-4.222;2023-05-01T00:23:29;10.77;;;2.90;;
44430;SDS011;30135;47.866;-4.222;2023-05-01T00:25:55;8.80;;;4.25;;
44430;SDS011;30135;47.866;-4.222;2023-05-01T00:28:21;8.15;;;4.10;;
44430;SDS011;30135;47.866;-4.222;2023-05-01T00:30:47;10.43;;;4.05;;
44430;SDS011;30135;47.866;-4.222;2023-05-01T00:33:13;11.55;;;3.60;;
44430;SDS011;30135;47.866;-4.222;2023-05-01T00:35:42;10.88;;;3.95;;
44430;SDS011;30135;47.866;-4.222;2023-05-01T00:40:44;14.15;;;3.88;;
44430;SDS011;30135;47.866;-4.222;2023-05-01T00:43:11;8.50;;;2.85;;
44430;SDS011;30135;47.866;-4.222;2023-05-01T00:45:41;6.22;;;3.10;;
44430;SDS011;30135;47.866;-4.222;2023-05-01T00:48:10;13.93;;;4.75;;
44430;SDS011;30135;47.866;-4.222;2023-05-01T00:50:36;13.00;;;4.38;;
44430;SDS011;30135;47.866;-4.222;2023-05-01T00:53:03;19.38;;;3.80;;
44430;SDS011;30135;47.866;-4.222;2023-05-01T00:55:29;14.85;;;4.40;;
44430;SDS011;30135;47.866;-4.222;2023-05-01T00:57:57;9.88;;;3.90;;
44430;SDS011;30135;47.866;-4.222;2023-05-01T01:00:24;10.95;;;3.75;;
44430;SDS011;30135;47.866;-4.222;2023-05-01T01:02:50;8.60;;;3.40;;
44430;SDS011;30135;47.866;-4.222;2023-05-01T01:05:17;7.45;;;3.63;;
44430;SDS011;30135;47.866;-4.222;2023-05-01T01:08:07;6.57;;;3.05;;
44430;SDS011;30135;47.866;-4.222;2023-05-01T01:14:07;16.63;;;4.75;;
44430;SDS011;30135;47.866;-4.222;2023-05-01T01:16:45;12.38;;;4.68;;
44430;SDS011;30135;47.866;-4.222;2023-05-01T01:22:52;14.13;;;6.38;;
44430;SDS011;30135;47.866;-4.222;2023-05-01T01:28:59;23.30;;;4.70;;
44430;SDS011;30135;47.866;-4.222;2023-05-01T01:32:02;16.70;;;4.20;;
44430;SDS011;30135;47.866;-4.222;2023-05-01T01:34:59;12.00;;;4.95;;
44430;SDS011;30135;47.866;-4.222;2023-05-01T01:40:40;16.38;;;4.43;;
44430;SDS011;30135;47.866;-4.222;2023-05-01T01:43:21;10.27;;;4.25;;
44430;SDS011;30135;47.866;-4.222;2023-05-01T01:45:52;19.07;;;3.97;;
44430;SDS011;30135;47.866;-4.222;2023-05-01T01:48:25;10.23;;;4.45;;
44430;SDS011;30135;47.866;-4.222;2023-05-01T01:51:05;13.68;;;4.80;;
44430;SDS011;30135;47.866;-4.222;2023-05-01T01:53:36;14.68;;;3.92;;
44430;SDS011;30135;47.866;-4.222;2023-05-01T01:56:05;15.70;;;3.50;;
44430;SDS011;30135;47.866;-4.222;2023-05-01T01:58:33;16.63;;;5.45;;
44430;SDS011;30135;47.866;-4.222;2023-05-01T02:01:03;12.02;;;3.28;;
44430;SDS011;30135;47.866;-4.222;2023-05-01T02:03:30;21.58;;;4.03;;
44430;SDS011;30135;47.866;-4.222;2023-05-01T02:05:58;19.10;;;5.45;;
44430;SDS011;30135;47.866;-4.222;2023-05-01T02:08:27;11.05;;;3.85;;
44430;SDS011;30135;47.866;-4.222;2023-05-01T02:10:54;18.93;;;4.13;;
44430;SDS011;30135;47.866;-4.222;2023-05-01T02:13:25;19.83;;;4.10;;
44430;SDS011;30135;47.866;-4.222;2023-05-01T02:18:22;15.93;;;4.00;;
44430;SDS011;30135;47.866;-4.222;2023-05-01T02:20:54;18.17;;;4.50;;
44430;SDS011;30135;47.866;-4.222;2023-05-01T02:23:23;20.48;;;3.97;;
44430;SDS011;30135;47.866;-4.222;2023-05-01T02:25:51;18.77;;;3.58;;
44430;SDS011;30135;47.866;-4.222;2023-05-01T02:28:21;16.80;;;3.72;;
44430;SDS011;30135;47.866;-4.222;2023-05-01T02:30:48;23.23;;;4.90;;
44430;SDS011;30135;47.866;-4.222;2023-05-01T02:33:15;9.07;;;2.60;;
44430;SDS011;30135;47.866;-4.222;2023-05-01T02:35:42;15.60;;;3.40;;
44430;SDS011;30135;47.866;-4.222;2023-05-01T02:38:11;22.58;;;3.45;;
44430;SDS011;30135;47.866;-4.222;2023-05-01T02:40:39;14.27;;;3.85;;
44430;SDS011;30135;47.866;-4.222;2023-05-01T02:43:14;12.13;;;3.20;;
44430;SDS011;30135;47.866;-4.222;2023-05-01T02:45:43;13.60;;;3.17;;
44430;SDS011;30135;47.866;-4.222;2023-05-01T02:48:09;17.38;;;3.45;;
44430;SDS011;30135;47.866;-4.222;2023-05-01T02:50:39;9.35;;;3.15;;
44430;SDS011;30135;47.866;-4.222;2023-05-01T02:53:08;14.85;;;4.65;;
44430;SDS011;30135;47.866;-4.222;2023-05-01T02:55:35;9.57;;;3.15;;
44430;SDS011;30135;47.866;-4.222;2023-05-01T02:58:02;13.70;;;3.83;;
44430;SDS011;30135;47.866;-4.222;2023-05-01T03:00:38;7.60;;;3.13;;
44430;SDS011;30135;47.866;-4.222;2023-05-01T03:03:04;10.07;;;3.03;;
44430;SDS011;30135;47.866;-4.222;2023-05-01T03:05:30;15.43;;;3.92;;
44430;SDS011;30135;47.866;-4.222;2023-05-01T03:07:57;12.82;;;3.47;;
44430;SDS011;30135;47.866;-4.222;2023-05-01T03:10:23;17.33;;;3.80;;
44430;SDS011;30135;47.866;-4.222;2023-05-01T03:12:49;14.05;;;3.95;;
44430;SDS011;30135;47.866;-4.222;2023-05-01T03:15:15;12.07;;;3.85;;
44430;SDS011;30135;47.866;-4.222;2023-05-01T03:17:42;18.48;;;4.75;;
44430;SDS011;30135;47.866;-4.222;2023-05-01T03:20:08;12.15;;;3.45;;
44430;SDS011;30135;47.866;-4.222;2023-05-01T03:22:35;17.65;;;3.42;;
44430;SDS011;30135;47.866;-4.222;2023-05-01T03:25:01;11.20;;;4.30;;
44430;SDS011;30135;47.866;-4.222;2023-05-01T03:27:28;13.65;;;4.28;;
44430;SDS011;30135;47.866;-4.222;2023-05-01T03:29:55;15.63;;;3.83;;
44430;SDS011;30135;47.866;-4.222;2023-05-01T03:32:21;9.35;;;3.45;;
44430;SDS011;30135;47.866;-4.222;2023-05-01T03:34:47;15.73;;;3.55;;
44430;SDS011;30135;47.866;-4.222;2023-05-01T03:37:13;14.00;;;3.75;;
44430;SDS011;30135;47.866;-4.222;2023-05-01T03:39:40;12.40;;;3.40;;
44430;SDS011;30135;47.866;-4.222;2023-05-01T03:42:06;20.38;;;3.47;;
44430;SDS011;30135;47.866;-4.222;2023-05-01T03:44:32;12.18;;;4.88;;
44430;SDS011;30135;47.866;-4.222;2023-05-01T03:46:58;13.32;;;3.60;;
44430;SDS011;30135;47.866;-4.222;2023-05-01T03:49:24;13.18;;;4.15;;
44430;SDS011;30135;47.866;-4.222;2023-05-01T03:51:50;14.80;;;4.20;;
44430;SDS011;30135;47.866;-4.222;2023-05-01T03:54:16;16.25;;;3.63;;
44430;SDS011;30135;47.866;-4.222;2023-05-01T03:56:42;15.73;;;4.13;;
44430;SDS011;30135;47.866;-4.222;2023-05-01T03:59:08;17.23;;;4.10;;
44430;SDS011;30135;47.866;-4.222;2023-05-01T04:01:34;15.07;;;3.95;;
44430;SDS011;30135;47.866;-4.222;2023-05-01T04:04:00;15.75;;;5.70;;
44430;SDS011;30135;47.866;-4.222;2023-05-01T04:06:26;31.13;;;7.53;;
44430;SDS011;30135;47.866;-4.222;2023-05-01T04:08:52;14.88;;;5.97;;
44430;SDS011;30135;47.866;-4.222;2023-05-01T04:11:18;15.55;;;4.47;;
44430;SDS011;30135;47.866;-4.222;2023-05-01T04:13:45;13.45;;;4.13;;
44430;SDS011;30135;47.866;-4.222;2023-05-01T04:16:11;15.60;;;4.78;;
44430;SDS011;30135;47.866;-4.222;2023-05-01T04:18:37;16.95;;;4.18;;
44430;SDS011;30135;47.866;-4.222;2023-05-01T04:21:03;24.60;;;5.38;;
44430;SDS011;30135;47.866;-4.222;2023-05-01T04:23:29;11.32;;;3.90;;
44430;SDS011;30135;47.866;-4.222;2023-05-01T04:25:55;9.93;;;4.43;;
44430;SDS011;30135;47.866;-4.222;2023-05-01T04:28:21;23.58;;;5.43;;
44430;SDS011;30135;47.866;-4.222;2023-05-01T04:30:48;14.00;;;3.40;;
44430;SDS011;30135;47.866;-4.222;2023-05-01T04:33:14;12.20;;;3.78;;
44430;SDS011;30135;47.866;-4.222;2023-05-01T04:35:40;12.25;;;3.22;;
44430;SDS011;30135;47.866;-4.222;2023-05-01T04:38:06;15.10;;;3.47;;
44430;SDS011;30135;47.866;-4.222;2023-05-01T04:43:02;12.90;;;3.97;;
44430;SDS011;30135;47.866;-4.222;2023-05-01T04:45:28;26.52;;;6.47;;
44430;SDS011;30135;47.866;-4.222;2023-05-01T04:47:53;9.65;;;3.33;;
44430;SDS011;30135;47.866;-4.222;2023-05-01T04:50:19;11.95;;;3.10;;
44430;SDS011;30135;47.866;-4.222;2023-05-01T04:52:45;20.23;;;4.10;;
44430;SDS011;30135;47.866;-4.222;2023-05-01T04:55:11;13.75;;;2.97;;
44430;SDS011;30135;47.866;-4.222;2023-05-01T04:57:37;30.08;;;4.10;;
44430;SDS011;30135;47.866;-4.222;2023-05-01T05:00:04;16.02;;;3.80;;
44430;SDS011;30135;47.866;-4.222;2023-05-01T05:02:31;12.40;;;3.45;;
44430;SDS011;30135;47.866;-4.222;2023-05-01T05:04:57;8.65;;;2.53;;
44430;SDS011;30135;47.866;-4.222;2023-05-01T05:07:23;8.77;;;2.22;;
44430;SDS011;30135;47.866;-4.222;2023-05-01T05:09:49;7.05;;;1.92;;
44430;SDS011;30135;47.866;-4.222;2023-05-01T05:12:15;8.75;;;2.13;;
44430;SDS011;30135;47.866;-4.222;2023-05-01T05:14:42;9.95;;;2.35;;
44430;SDS011;30135;47.866;-4.222;2023-05-01T05:17:08;12.50;;;2.63;;
44430;SDS011;30135;47.866;-4.222;2023-05-01T05:19:34;6.07;;;2.33;;
44430;SDS011;30135;47.866;-4.222;2023-05-01T05:22:06;14.93;;;2.42;;
44430;SDS011;30135;47.866;-4.222;2023-05-01T05:24:32;16.27;;;2.03;;
44430;SDS011;30135;47.866;-4.222;2023-05-01T05:26:58;6.45;;;2.20;;
44430;SDS011;30135;47.866;-4.222;2023-05-01T05:29:24;10.60;;;1.95;;
44430;SDS011;30135;47.866;-4.222;2023-05-01T05:31:50;9.93;;;1.63;;
44430;SDS011;30135;47.866;-4.222;2023-05-01T05:34:16;9.73;;;1.90;;
44430;SDS011;30135;47.866;-4.222;2023-05-01T05:36:43;13.32;;;2.88;;
44430;SDS011;30135;47.866;-4.222;2023-05-01T05:39:12;9.43;;;1.95;;
44430;SDS011;30135;47.866;-4.222;2023-05-01T05:41:38;7.28;;;3.00;;
44430;SDS011;30135;47.866;-4.222;2023-05-01T05:44:04;12.32;;;2.15;;
44430;SDS011;30135;47.866;-4.222;2023-05-01T05:46:30;6.15;;;1.60;;
44430;SDS011;30135;47.866;-4.222;2023-05-01T05:48:56;8.05;;;1.92;;
44430;SDS011;30135;47.866;-4.222;2023-05-01T05:51:25;7.97;;;1.93;;
44430;SDS011;30135;47.866;-4.222;2023-05-01T05:53:52;11.75;;;1.92;;
44430;SDS011;30135;47.866;-4.222;2023-05-01T05:56:18;8.25;;;2.03;;
44430;SDS011;30135;47.866;-4.222;2023-05-01T05:58:44;6.80;;;1.67;;
44430;SDS011;30135;47.866;-4.222;2023-05-01T06:01:16;7.55;;;1.85;;
44430;SDS011;30135;47.866;-4.222;2023-05-01T06:03:42;4.57;;;2.40;;
44430;SDS011;30135;47.866;-4.222;2023-05-01T06:06:08;16.02;;;2.10;;
44430;SDS011;30135;47.866;-4.222;2023-05-01T06:08:33;6.60;;;1.67;;
44430;SDS011;30135;47.866;-4.222;2023-05-01T06:11:01;8.07;;;1.73;;
44430;SDS011;30135;47.866;-4.222;2023-05-01T06:13:27;16.60;;;2.70;;
44430;SDS011;30135;47.866;-4.222;2023-05-01T06:15:53;8.70;;;1.50;;
44430;SDS011;30135;47.866;-4.222;2023-05-01T06:18:19;12.93;;;3.15;;
44430;SDS011;30135;47.866;-4.222;2023-05-01T06:20:45;17.30;;;3.20;;
44430;SDS011;30135;47.866;-4.222;2023-05-01T06:23:12;8.43;;;2.40;;
44430;SDS011;30135;47.866;-4.222;2023-05-01T06:25:38;20.25;;;3.67;;
44430;SDS011;30135;47.866;-4.222;2023-05-01T06:28:04;5.45;;;1.90;;
44430;SDS011;30135;47.866;-4.222;2023-05-01T06:30:30;13.70;;;2.55;;
44430;SDS011;30135;47.866;-4.222;2023-05-01T06:32:56;13.63;;;3.92;;
44430;SDS011;30135;47.866;-4.222;2023-05-01T06:35:22;14.77;;;2.38;;
44430;SDS011;30135;47.866;-4.222;2023-05-01T06:37:48;15.05;;;3.28;;
44430;SDS011;30135;47.866;-4.222;2023-05-01T06:40:13;12.68;;;1.75;;
44430;SDS011;30135;47.866;-4.222;2023-05-01T06:42:40;10.10;;;1.83;;
44430;SDS011;30135;47.866;-4.222;2023-05-01T06:45:09;6.78;;;2.63;;
44430;SDS011;30135;47.866;-4.222;2023-05-01T06:47:35;7.70;;;1.50;;
44430;SDS011;30135;47.866;-4.222;2023-05-01T06:50:01;14.43;;;2.45;;
44430;SDS011;30135;47.866;-4.222;2023-05-01T06:52:28;7.72;;;1.33;;
44430;SDS011;30135;47.866;-4.222;2023-05-01T06:54:55;10.25;;;1.85;;
44430;SDS011;30135;47.866;-4.222;2023-05-01T06:57:21;8.05;;;2.03;;
44430;SDS011;30135;47.866;-4.222;2023-05-01T06:59:46;6.65;;;1.20;;
44430;SDS011;30135;47.866;-4.222;2023-05-01T07:02:12;7.22;;;1.42;;
44430;SDS011;30135;47.866;-4.222;2023-05-01T07:04:38;11.95;;;1.90;;
44430;SDS011;30135;47.866;-4.222;2023-05-01T07:07:04;5.22;;;1.35;;
44430;SDS011;30135;47.866;-4.222;2023-05-01T07:09:30;12.20;;;1.83;;
44430;SDS011;30135;47.866;-4.222;2023-05-01T07:11:57;10.38;;;2.72;;
44430;SDS011;30135;47.866;-4.222;2023-05-01T07:14:23;10.15;;;2.17;;
44430;SDS011;30135;47.866;-4.222;2023-05-01T07:16:49;11.77;;;1.65;;
44430;SDS011;30135;47.866;-4.222;2023-05-01T07:19:15;11.45;;;1.98;;
44430;SDS011;30135;47.866;-4.222;2023-05-01T07:21:41;9.45;;;2.05;;
44430;SDS011;30135;47.866;-4.222;2023-05-01T07:24:07;8.05;;;2.20;;
44430;SDS011;30135;47.866;-4.222;2023-05-01T07:26:33;6.40;;;1.92;;
44430;SDS011;30135;47.866;-4.222;2023-05-01T07:29:00;13.10;;;2.47;;
44430;SDS011;30135;47.866;-4.222;2023-05-01T07:31:26;10.32;;;2.33;;
44430;SDS011;30135;47.866;-4.222;2023-05-01T07:33:52;8.68;;;1.55;;
44430;SDS011;30135;47.866;-4.222;2023-05-01T07:36:18;7.43;;;1.73;;
44430;SDS011;30135;47.866;-4.222;2023-05-01T07:38:46;8.95;;;2.05;;
44430;SDS011;30135;47.866;-4.222;2023-05-01T07:41:12;16.20;;;2.47;;
44430;SDS011;30135;47.866;-4.222;2023-05-01T07:43:38;8.68;;;1.60;;
44430;SDS011;30135;47.866;-4.222;2023-05-01T07:46:05;4.85;;;1.70;;
44430;SDS011;30135;47.866;-4.222;2023-05-01T07:48:31;11.23;;;1.58;;
44430;SDS011;30135;47.866;-4.222;2023-05-01T07:51:00;11.55;;;1.30;;
44430;SDS011;30135;47.866;-4.222;2023-05-01T07:53:27;11.27;;;2.55;;
44430;SDS011;30135;47.866;-4.222;2023-05-01T07:55:53;15.88;;;3.20;;
44430;SDS011;30135;47.866;-4.222;2023-05-01T07:58:33;11.52;;;1.88;;
44430;SDS011;30135;47.866;-4.222;2023-05-01T08:01:00;7.95;;;1.40;;
44430;SDS011;30135;47.866;-4.222;2023-05-01T08:03:28;14.25;;;2.63;;
44430;SDS011;30135;47.866;-4.222;2023-05-01T08:05:55;6.85;;;1.27;;
44430;SDS011;30135;47.866;-4.222;2023-05-01T08:08:21;5.28;;;1.00;;
44430;SDS011;30135;47.866;-4.222;2023-05-01T08:10:48;6.35;;;1.35;;
44430;SDS011;30135;47.866;-4.222;2023-05-01T08:13:15;5.70;;;2.38;;
44430;SDS011;30135;47.866;-4.222;2023-05-01T08:15:41;11.73;;;2.03;;
44430;SDS011;30135;47.866;-4.222;2023-05-01T08:18:09;8.70;;;2.10;;
44430;SDS011;30135;47.866;-4.222;2023-05-01T08:20:35;3.80;;;1.20;;
44430;SDS011;30135;47.866;-4.222;2023-05-01T08:23:01;9.32;;;1.45;;
44430;SDS011;30135;47.866;-4.222;2023-05-01T08:25:27;9.60;;;1.85;;
44430;SDS011;30135;47.866;-4.222;2023-05-01T08:27:55;9.30;;;1.75;;
44430;SDS011;30135;47.866;-4.222;2023-05-01T08:30:21;7.65;;;1.50;;
44430;SDS011;30135;47.866;-4.222;2023-05-01T08:32:47;7.80;;;1.17;;
44430;SDS011;30135;47.866;-4.222;2023-05-01T08:35:13;8.00;;;1.33;;
44430;SDS011;30135;47.866;-4.222;2023-05-01T08:37:39;11.20;;;2.53;;
44430;SDS011;30135;47.866;-4.222;2023-05-01T08:40:05;9.30;;;2.67;;
44430;SDS011;30135;47.866;-4.222;2023-05-01T08:42:35;10.65;;;1.38;;
44430;SDS011;30135;47.866;-4.222;2023-05-01T08:45:04;8.77;;;2.08;;
44430;SDS011;30135;47.866;-4.222;2023-05-01T08:47:35;8.15;;;2.72;;
44430;SDS011;30135;47.866;-4.222;2023-05-01T08:50:11;9.50;;;1.33;;
44430;SDS011;30135;47.866;-4.222;2023-05-01T08:52:41;4.55;;;1.17;;
44430;SDS011;30135;47.866;-4.222;2023-05-01T08:55:12;9.75;;;1.30;;
44430;SDS011;30135;47.866;-4.222;2023-05-01T08:57:43;7.30;;;1.42;;
44430;SDS011;30135;47.866;-4.222;2023-05-01T09:00:13;3.67;;;1.38;;
44430;SDS011;30135;47.866;-4.222;2023-05-01T09:02:48;8.10;;;1.88;;
44430;SDS011;30135;47.866;-4.222;2023-05-01T09:07:42;7.15;;;1.10;;
44430;SDS011;30135;47.866;-4.222;2023-05-01T09:10:11;12.05;;;0.90;;
44430;SDS011;30135;47.866;-4.222;2023-05-01T09:12:38;4.82;;;1.02;;
44430;SDS011;30135;47.866;-4.222;2023-05-01T09:15:06;13.23;;;1.00;;
44430;SDS011;30135;47.866;-4.222;2023-05-01T09:17:35;2.83;;;1.13;;
44430;SDS011;30135;47.866;-4.222;2023-05-01T09:20:02;7.30;;;1.05;;
44430;SDS011;30135;47.866;-4.222;2023-05-01T09:22:30;4.27;;;0.77;;
44430;SDS011;30135;47.866;-4.222;2023-05-01T09:24:58;9.43;;;0.93;;
44430;SDS011;30135;47.866;-4.222;2023-05-01T09:27:28;5.70;;;1.13;;
44430;SDS011;30135;47.866;-4.222;2023-05-01T09:29:59;5.97;;;1.08;;
44430;SDS011;30135;47.866;-4.222;2023-05-01T09:32:25;10.00;;;1.10;;
44430;SDS011;30135;47.866;-4.222;2023-05-01T09:34:55;12.50;;;2.80;;
44430;SDS011;30135;47.866;-4.222;2023-05-01T09:37:37;6.13;;;1.48;;
44430;SDS011;30135;47.866;-4.222;2023-05-01T09:42:48;8.57;;;1.52;;
44430;SDS011;30135;47.866;-4.222;2023-05-01T09:45:16;10.07;;;1.98;;
44430;SDS011;30135;47.866;-4.222;2023-05-01T09:47:44;6.53;;;1.40;;
44430;SDS011;30135;47.866;-4.222;2023-05-01T09:50:27;8.93;;;1.75;;
44430;SDS011;30135;47.866;-4.222;2023-05-01T09:52:54;7.45;;;0.90;;
44430;SDS011;30135;47.866;-4.222;2023-05-01T09:55:21;7.63;;;1.27;;
44430;SDS011;30135;47.866;-4.222;2023-05-01T09:57:50;6.85;;;0.80;;
44430;SDS011;30135;47.866;-4.222;2023-05-01T10:00:16;1.88;;;0.90;;
44430;SDS011;30135;47.866;-4.222;2023-05-01T10:02:45;3.60;;;0.80;;
44430;SDS011;30135;47.866;-4.222;2023-05-01T10:05:13;13.38;;;1.40;;
44430;SDS011;30135;47.866;-4.222;2023-05-01T10:08:01;5.03;;;1.27;;
44430;SDS011;30135;47.866;-4.222;2023-05-01T10:10:27;8.40;;;0.90;;
44430;SDS011;30135;47.866;-4.222;2023-05-01T10:12:54;6.25;;;1.10;;
44430;SDS011;30135;47.866;-4.222;2023-05-01T10:15:20;2.53;;;0.63;;
44430;SDS011;30135;47.866;-4.222;2023-05-01T10:17:48;3.83;;;0.88;;
44430;SDS011;30135;47.866;-4.222;2023-05-01T10:20:17;5.65;;;1.55;;
44430;SDS011;30135;47.866;-4.222;2023-05-01T10:22:50;3.90;;;0.82;;
44430;SDS011;30135;47.866;-4.222;2023-05-01T10:25:16;5.85;;;1.20;;
44430;SDS011;30135;47.866;-4.222;2023-05-01T10:27:44;2.22;;;0.75;;
44430;SDS011;30135;47.866;-4.222;2023-05-01T10:30:10;5.85;;;1.30;;
44430;SDS011;30135;47.866;-4.222;2023-05-01T10:32:37;9.55;;;1.40;;
44430;SDS011;30135;47.866;-4.222;2023-05-01T10:37:38;4.90;;;0.60;;
44430;SDS011;30135;47.866;-4.222;2023-05-01T10:43:23;6.38;;;0.88;;
44430;SDS011;30135;47.866;-4.222;2023-05-01T10:53:42;5.50;;;1.13;;
44430;SDS011;30135;47.866;-4.222;2023-05-01T10:58:58;10.52;;;1.40;;
44430;SDS011;30135;47.866;-4.222;2023-05-01T11:01:29;19.95;;;1.17;;
44430;SDS011;30135;47.866;-4.222;2023-05-01T11:15:09;7.10;;;1.00;;
44430;SDS011;30135;47.866;-4.222;2023-05-01T11:20:07;6.20;;;1.15;;
44430;SDS011;30135;47.866;-4.222;2023-05-01T11:22:44;6.13;;;0.88;;
44430;SDS011;30135;47.866;-4.222;2023-05-01T11:25:27;8.25;;;1.40;;
44430;SDS011;30135;47.866;-4.222;2023-05-01T11:27:55;2.88;;;0.73;;
44430;SDS011;30135;47.866;-4.222;2023-05-01T11:30:24;1.50;;;0.47;;
44430;SDS011;30135;47.866;-4.222;2023-05-01T11:32:50;4.80;;;0.70;;
44430;SDS011;30135;47.866;-4.222;2023-05-01T11:35:19;8.43;;;0.83;;
44430;SDS011;30135;47.866;-4.222;2023-05-01T11:37:50;4.70;;;0.77;;
44430;SDS011;30135;47.866;-4.222;2023-05-01T11:40:25;6.25;;;1.02;;
44430;SDS011;30135;47.866;-4.222;2023-05-01T11:43:03;2.47;;;0.55;;
44430;SDS011;30135;47.866;-4.222;2023-05-01T11:45:32;2.78;;;1.10;;
44430;SDS011;30135;47.866;-4.222;2023-05-01T11:48:00;4.32;;;0.73;;
44430;SDS011;30135;47.866;-4.222;2023-05-01T11:50:36;7.25;;;1.35;;
44430;SDS011;30135;47.866;-4.222;2023-05-01T11:53:12;6.50;;;0.82;;
44430;SDS011;30135;47.866;-4.222;2023-05-01T11:55:42;3.95;;;1.13;;
44430;SDS011;30135;47.866;-4.222;2023-05-01T11:58:09;2.70;;;0.68;;
44430;SDS011;30135;47.866;-4.222;2023-05-01T12:00:37;13.45;;;0.60;;
44430;SDS011;30135;47.866;-4.222;2023-05-01T12:03:08;3.78;;;0.70;;
44430;SDS011;30135;47.866;-4.222;2023-05-01T12:05:39;4.38;;;1.27;;
44430;SDS011;30135;47.866;-4.222;2023-05-01T12:10:36;5.15;;;1.17;;
44430;SDS011;30135;47.866;-4.222;2023-05-01T12:13:07;1.65;;;0.40;;
44430;SDS011;30135;47.866;-4.222;2023-05-01T12:15:40;6.03;;;0.80;;
44430;SDS011;30135;47.866;-4.222;2023-05-01T12:18:08;4.72;;;0.63;;
44430;SDS011;30135;47.866;-4.222;2023-05-01T12:20:43;11.85;;;1.30;;
44430;SDS011;30135;47.866;-4.222;2023-05-01T12:23:12;2.75;;;1.58;;
44430;SDS011;30135;47.866;-4.222;2023-05-01T12:25:42;7.32;;;0.60;;
44430;SDS011;30135;47.866;-4.222;2023-05-01T12:28:19;3.53;;;0.57;;
44430;SDS011;30135;47.866;-4.222;2023-05-01T12:30:46;6.03;;;0.93;;
44430;SDS011;30135;47.866;-4.222;2023-05-01T12:35:39;2.17;;;0.63;;
44430;SDS011;30135;47.866;-4.222;2023-05-01T12:38:10;3.17;;;0.80;;
44430;SDS011;30135;47.866;-4.222;2023-05-01T12:40:37;4.88;;;0.50;;
44430;SDS011;30135;47.866;-4.222;2023-05-01T12:43:04;3.33;;;0.57;;
44430;SDS011;30135;47.866;-4.222;2023-05-01T12:45:36;16.20;;;1.00;;
44430;SDS011;30135;47.866;-4.222;2023-05-01T12:48:11;4.57;;;0.55;;
44430;SDS011;30135;47.866;-4.222;2023-05-01T12:50:39;6.13;;;1.08;;
44430;SDS011;30135;47.866;-4.222;2023-05-01T12:53:06;8.95;;;0.77;;
44430;SDS011;30135;47.866;-4.222;2023-05-01T12:55:46;2.28;;;0.32;;
44430;SDS011;30135;47.866;-4.222;2023-05-01T12:58:15;7.38;;;0.47;;
44430;SDS011;30135;47.866;-4.222;2023-05-01T13:00:51;13.53;;;1.50;;
44430;SDS011;30135;47.866;-4.222;2023-05-01T13:03:23;5.25;;;0.82;;
44430;SDS011;30135;47.866;-4.222;2023-05-01T13:05:55;2.67;;;0.52;;
44430;SDS011;30135;47.866;-4.222;2023-05-01T13:08:36;4.10;;;0.50;;
44430;SDS011;30135;47.866;-4.222;2023-05-01T13:13:37;11.77;;;1.13;;
44430;SDS011;30135;47.866;-4.222;2023-05-01T13:16:07;1.33;;;0.50;;
44430;SDS011;30135;47.866;-4.222;2023-05-01T13:21:23;6.57;;;0.40;;
44430;SDS011;30135;47.866;-4.222;2023-05-01T13:28:54;2.10;;;0.40;;
44430;SDS011;30135;47.866;-4.222;2023-05-01T13:31:21;5.45;;;0.52;;
44430;SDS011;30135;47.866;-4.222;2023-05-01T13:33:50;5.53;;;0.70;;
44430;SDS011;30135;47.866;-4.222;2023-05-01T13:36:18;6.22;;;0.85;;
44430;SDS011;30135;47.866;-4.222;2023-05-01T13:38:45;6.07;;;0.70;;
44430;SDS011;30135;47.866;-4.222;2023-05-01T13:41:16;7.20;;;1.27;;
44430;SDS011;30135;47.866;-4.222;2023-05-01T13:43:46;4.67;;;1.67;;
44430;SDS011;30135;47.866;-4.222;2023-05-01T13:46:14;4.15;;;0.50;;
44430;SDS011;30135;47.866;-4.222;2023-05-01T13:48:45;4.68;;;0.40;;
44430;SDS011;30135;47.866;-4.222;2023-05-01T13:51:11;5.72;;;1.60;;
44430;SDS011;30135;47.866;-4.222;2023-05-01T13:53:42;1.95;;;0.95;;
44430;SDS011;30135;47.866;-4.222;2023-05-01T13:56:08;4.75;;;0.75;;
44430;SDS011;30135;47.866;-4.222;2023-05-01T13:58:37;8.77;;;1.50;;
44430;SDS011;30135;47.866;-4.222;2023-05-01T14:01:12;4.13;;;2.00;;
44430;SDS011;30135;47.866;-4.222;2023-05-01T14:03:41;3.63;;;0.55;;
44430;SDS011;30135;47.866;-4.222;2023-05-01T14:06:08;3.75;;;0.82;;
44430;SDS011;30135;47.866;-4.222;2023-05-01T14:08:37;4.13;;;0.47;;
44430;SDS011;30135;47.866;-4.222;2023-05-01T14:11:04;3.15;;;0.52;;
44430;SDS011;30135;47.866;-4.222;2023-05-01T14:13:36;6.20;;;0.77;;
44430;SDS011;30135;47.866;-4.222;2023-05-01T14:16:09;8.57;;;0.68;;
44430;SDS011;30135;47.866;-4.222;2023-05-01T14:18:49;2.58;;;0.57;;
44430;SDS011;30135;47.866;-4.222;2023-05-01T14:21:21;4.35;;;0.70;;
44430;SDS011;30135;47.866;-4.222;2023-05-01T14:23:51;7.40;;;0.63;;
44430;SDS011;30135;47.866;-4.222;2023-05-01T14:26:18;9.48;;;0.65;;
44430;SDS011;30135;47.866;-4.222;2023-05-01T14:28:45;2.45;;;0.77;;
44430;SDS011;30135;47.866;-4.222;2023-05-01T14:31:23;3.33;;;0.85;;
44430;SDS011;30135;47.866;-4.222;2023-05-01T14:33:55;4.85;;;0.77;;
44430;SDS011;30135;47.866;-4.222;2023-05-01T14:36:23;5.70;;;0.90;;
44430;SDS011;30135;47.866;-4.222;2023-05-01T14:38:54;2.13;;;0.50;;
44430;SDS011;30135;47.866;-4.222;2023-05-01T14:41:22;4.63;;;0.70;;
44430;SDS011;30135;47.866;-4.222;2023-05-01T14:43:49;8.73;;;2.15;;
44430;SDS011;30135;47.866;-4.222;2023-05-01T14:46:21;5.60;;;0.73;;
44430;SDS011;30135;47.866;-4.222;2023-05-01T14:48:54;4.28;;;0.60;;
44430;SDS011;30135;47.866;-4.222;2023-05-01T14:51:21;3.15;;;0.70;;
44430;SDS011;30135;47.866;-4.222;2023-05-01T14:53:46;5.18;;;0.73;;
44430;SDS011;30135;47.866;-4.222;2023-05-01T14:56:13;5.80;;;1.40;;
44430;SDS011;30135;47.866;-4.222;2023-05-01T14:58:39;5.55;;;1.95;;
44430;SDS011;30135;47.866;-4.222;2023-05-01T15:01:05;4.13;;;1.23;;
44430;SDS011;30135;47.866;-4.222;2023-05-01T15:03:32;4.18;;;1.10;;
44430;SDS011;30135;47.866;-4.222;2023-05-01T15:06:08;6.97;;;0.73;;
44430;SDS011;30135;47.866;-4.222;2023-05-01T15:08:40;5.03;;;0.85;;
44430;SDS011;30135;47.866;-4.222;2023-05-01T15:11:07;4.78;;;1.00;;
44430;SDS011;30135;47.866;-4.222;2023-05-01T15:13:33;2.17;;;0.75;;
44430;SDS011;30135;47.866;-4.222;2023-05-01T15:16:00;11.32;;;1.33;;
44430;SDS011;30135;47.866;-4.222;2023-05-01T15:18:27;1.05;;;0.45;;
44430;SDS011;30135;47.866;-4.222;2023-05-01T15:20:53;7.95;;;1.23;;
44430;SDS011;30135;47.866;-4.222;2023-05-01T15:23:20;8.70;;;0.65;;
44430;SDS011;30135;47.866;-4.222;2023-05-01T15:25:46;6.10;;;2.38;;
44430;SDS011;30135;47.866;-4.222;2023-05-01T15:28:14;7.20;;;2.20;;
44430;SDS011;30135;47.866;-4.222;2023-05-01T15:30:44;5.35;;;1.17;;
44430;SDS011;30135;47.866;-4.222;2023-05-01T15:33:17;8.55;;;2.30;;
44430;SDS011;30135;47.866;-4.222;2023-05-01T15:35:44;5.55;;;1.10;;
44430;SDS011;30135;47.866;-4.222;2023-05-01T15:38:11;10.98;;;1.23;;
44430;SDS011;30135;47.866;-4.222;2023-05-01T15:40:37;9.98;;;1.80;;
44430;SDS011;30135;47.866;-4.222;2023-05-01T15:43:03;2.38;;;1.05;;
44430;SDS011;30135;47.866;-4.222;2023-05-01T15:45:30;8.27;;;1.10;;
44430;SDS011;30135;47.866;-4.222;2023-05-01T15:47:57;5.07;;;0.93;;